Time;durP1;ratioP1;P1;durP2;ratioP2;P2;SDS_P1;SDS_P2;PMS_P1;PMS_P2;Temp;Humidity;BMP_temperature;BMP_pressure;BME280_temperature;BME280_humidity;BME280_pressure;Samples;Min_cycle;Max_cycle;Signal;HPM_P1;HPM_P2
2021/12/28 00:01:18;;;;;;;13.65;7.30;;;8.40;99.90;;;;;;4997519;28;20198;-70
2021/12/28 00:03:46;;;;;;;14.30;6.93;;;8.40;99.90;;;;;;4997226;28;20222;-70
2021/12/28 00:06:15;;;;;;;11.88;6.32;;;8.40;99.90;;;;;;4997431;28;20238;-70
2021/12/28 00:08:42;;;;;;;15.20;6.18;;;8.30;99.90;;;;;;4995725;28;20202;-70
2021/12/28 00:11:08;;;;;;;13.27;6.60;;;8.30;99.90;;;;;;4996818;28;20607;-71
2021/12/28 00:13:36;;;;;;;19.50;9.27;;;8.30;99.90;;;;;;4997377;28;20654;-70
2021/12/28 00:18:34;;;;;;;16.02;6.38;;;8.30;99.90;;;;;;4997300;28;20646;-70
2021/12/28 00:21:03;;;;;;;13.60;6.10;;;8.30;99.90;;;;;;4996979;28;20231;-70
2021/12/28 00:23:37;;;;;;;12.57;6.68;;;8.30;99.90;;;;;;4979317;28;20210;-69
2021/12/28 00:26:05;;;;;;;14.65;5.45;;;8.30;99.90;;;;;;4996328;28;20226;-70
2021/12/28 00:28:32;;;;;;;15.20;5.22;;;8.30;99.90;;;;;;4997459;28;20199;-71
2021/12/28 00:30:58;;;;;;;10.20;5.20;;;8.30;99.90;;;;;;4995452;28;20635;-70
2021/12/28 00:33:26;;;;;;;11.43;4.88;;;8.30;99.90;;;;;;4996255;28;20198;-70
2021/12/28 00:35:53;;;;;;;15.18;5.60;;;8.40;99.90;;;;;;4996923;28;20203;-70
2021/12/28 00:38:23;;;;;;;12.50;5.15;;;8.30;99.90;;;;;;4996784;28;20214;-70
2021/12/28 00:40:52;;;;;;;16.55;4.90;;;8.40;99.90;;;;;;4996166;28;20590;-70
2021/12/28 00:43:19;;;;;;;19.80;5.18;;;8.40;99.90;;;;;;4995984;28;20206;-71
2021/12/28 00:45:47;;;;;;;9.73;4.75;;;8.40;99.90;;;;;;4996185;28;20219;-70
2021/12/28 00:48:14;;;;;;;12.18;4.40;;;8.50;99.90;;;;;;4996317;28;20202;-70
2021/12/28 00:50:41;;;;;;;19.35;5.45;;;8.50;99.90;;;;;;4996910;28;20198;-70
2021/12/28 00:53:08;;;;;;;20.55;4.55;;;8.50;99.90;;;;;;4996462;28;20260;-69
2021/12/28 00:55:34;;;;;;;21.35;4.40;;;8.50;99.90;;;;;;4996880;28;20234;-70
2021/12/28 00:58:01;;;;;;;12.13;4.97;;;8.50;99.90;;;;;;4996179;28;20210;-71
2021/12/28 01:00:30;;;;;;;12.98;4.03;;;8.40;99.90;;;;;;4995980;28;20278;-71
2021/12/28 01:03:00;;;;;;;14.25;4.20;;;8.40;99.90;;;;;;4996226;28;20207;-71
2021/12/28 01:05:30;;;;;;;27.40;4.28;;;8.30;99.90;;;;;;4995786;28;20227;-71
2021/12/28 01:07:57;;;;;;;16.48;4.57;;;8.30;99.90;;;;;;4996205;28;20596;-69
2021/12/28 01:10:33;;;;;;;23.10;5.00;;;8.30;99.90;;;;;;4995688;28;20675;-70
2021/12/28 01:13:00;;;;;;;15.63;4.60;;;8.20;99.90;;;;;;4996060;28;20186;-71
2021/12/28 01:15:28;;;;;;;17.80;4.00;;;8.10;99.90;;;;;;4995675;28;20252;-70
2021/12/28 01:17:55;;;;;;;22.15;5.00;;;8.10;99.90;;;;;;4995874;28;20272;-71
2021/12/28 01:20:22;;;;;;;12.82;4.57;;;8.10;99.90;;;;;;4996055;28;20573;-70
2021/12/28 01:22:49;;;;;;;18.00;4.50;;;8.00;99.90;;;;;;4995171;28;20217;-70
2021/12/28 01:25:17;;;;;;;20.10;4.88;;;8.00;99.90;;;;;;4995554;28;20285;-70
2021/12/28 01:27:44;;;;;;;16.73;4.25;;;8.00;99.90;;;;;;4996235;28;20252;-70
2021/12/28 01:30:11;;;;;;;15.50;4.90;;;8.00;99.90;;;;;;4995590;28;20210;-71
2021/12/28 01:32:38;;;;;;;12.65;3.80;;;8.00;99.90;;;;;;4993587;28;20669;-71
2021/12/28 01:35:08;;;;;;;14.40;4.38;;;8.00;99.90;;;;;;4995651;28;20205;-71
2021/12/28 01:37:35;;;;;;;17.27;4.00;;;7.90;99.90;;;;;;4995960;28;20202;-71
2021/12/28 01:40:03;;;;;;;23.77;5.78;;;7.90;99.90;;;;;;4995220;28;20662;-71
2021/12/28 01:42:30;;;;;;;17.73;4.25;;;7.90;99.90;;;;;;4994066;28;20214;-71
2021/12/28 01:44:57;;;;;;;26.15;5.90;;;7.90;99.90;;;;;;4994679;28;20203;-71
2021/12/28 01:47:23;;;;;;;10.60;4.93;;;7.90;99.90;;;;;;4993998;28;20205;-71
2021/12/28 01:49:50;;;;;;;20.30;4.75;;;7.80;99.90;;;;;;4995037;28;20260;-71
2021/12/28 01:52:16;;;;;;;19.63;5.10;;;7.90;99.90;;;;;;4995348;28;20233;-71
2021/12/28 01:54:43;;;;;;;14.70;4.28;;;7.80;99.90;;;;;;4995777;28;20256;-71
2021/12/28 01:57:09;;;;;;;17.80;4.15;;;7.80;99.90;;;;;;4995117;28;20688;-71
2021/12/28 01:59:36;;;;;;;19.70;4.55;;;7.80;99.90;;;;;;4995224;28;20206;-70
2021/12/28 02:02:02;;;;;;;16.98;4.60;;;7.80;99.90;;;;;;4995470;28;20317;-71
2021/12/28 02:04:29;;;;;;;13.90;3.88;;;7.80;99.90;;;;;;4994513;28;20202;-70
2021/12/28 02:06:57;;;;;;;15.73;4.45;;;7.80;99.90;;;;;;4994893;28;20230;-70
2021/12/28 02:09:24;;;;;;;11.00;4.32;;;7.80;99.90;;;;;;4995243;28;20209;-71
2021/12/28 02:11:52;;;;;;;19.75;3.95;;;7.80;99.90;;;;;;4994937;28;20207;-70
2021/12/28 02:14:20;;;;;;;9.65;3.22;;;7.90;99.90;;;;;;4994920;28;20202;-70
2021/12/28 02:16:46;;;;;;;18.00;4.00;;;7.90;99.90;;;;;;4994744;28;20256;-70
2021/12/28 02:19:14;;;;;;;13.25;3.38;;;7.90;99.90;;;;;;4995206;28;20218;-70
2021/12/28 02:21:41;;;;;;;17.55;4.20;;;7.90;99.90;;;;;;4995338;28;20714;-71
2021/12/28 02:24:08;;;;;;;8.32;3.50;;;8.00;99.90;;;;;;4995823;28;20210;-70
2021/12/28 02:26:35;;;;;;;26.65;4.28;;;8.00;99.90;;;;;;4995499;28;20277;-70
2021/12/28 02:29:04;;;;;;;13.02;3.78;;;8.00;99.90;;;;;;4995667;28;20206;-70
2021/12/28 02:31:30;;;;;;;12.68;3.47;;;8.00;99.90;;;;;;4995304;28;20643;-70
2021/12/28 02:33:57;;;;;;;9.82;3.67;;;8.00;99.90;;;;;;4995665;28;20198;-71
2021/12/28 02:36:24;;;;;;;16.02;3.92;;;8.00;99.90;;;;;;4995257;28;20202;-70
2021/12/28 02:38:50;;;;;;;16.42;3.33;;;8.10;99.90;;;;;;4994960;28;20214;-70
2021/12/28 02:41:17;;;;;;;12.85;3.42;;;8.00;99.90;;;;;;4994955;28;20230;-70
2021/12/28 02:43:48;;;;;;;12.77;2.83;;;8.10;99.90;;;;;;4994491;28;20242;-71
2021/12/28 02:46:16;;;;;;;22.48;3.80;;;8.10;99.90;;;;;;4995417;28;20214;-70
2021/12/28 02:48:43;;;;;;;10.68;3.90;;;8.10;99.90;;;;;;4993788;28;20667;-70
2021/12/28 02:51:15;;;;;;;15.25;3.90;;;8.10;99.90;;;;;;4995003;28;20202;-70
2021/12/28 02:53:43;;;;;;;12.70;2.42;;;8.10;99.90;;;;;;4994726;28;20202;-69
2021/12/28 02:56:11;;;;;;;9.05;2.88;;;8.10;99.90;;;;;;4977592;28;20214;-70
2021/12/28 02:58:47;;;;;;;8.85;3.65;;;8.10;99.90;;;;;;4998590;28;20205;-69
2021/12/28 03:01:19;;;;;;;9.18;2.50;;;8.10;99.90;;;;;;4998571;28;20190;-70
2021/12/28 03:03:47;;;;;;;14.80;4.10;;;8.10;99.90;;;;;;4998190;28;20210;-69
2021/12/28 03:06:16;;;;;;;7.68;2.38;;;8.10;99.90;;;;;;4998031;28;20230;-70
2021/12/28 03:08:48;;;;;;;13.93;2.95;;;8.10;99.90;;;;;;4998500;28;20198;-70
2021/12/28 03:11:15;;;;;;;13.82;3.05;;;8.10;99.90;;;;;;4998388;28;20197;-70
2021/12/28 03:13:45;;;;;;;9.50;2.65;;;8.10;99.90;;;;;;4998691;28;20276;-71
2021/12/28 03:16:13;;;;;;;6.05;2.78;;;8.10;99.90;;;;;;4998196;28;20257;-70
2021/12/28 03:18:40;;;;;;;12.68;2.95;;;8.10;99.90;;;;;;4998120;28;20670;-70
2021/12/28 03:21:08;;;;;;;13.73;3.50;;;8.00;99.90;;;;;;4997809;28;20231;-70
2021/12/28 03:23:36;;;;;;;7.70;2.42;;;8.00;99.90;;;;;;4997668;28;20575;-70
2021/12/28 03:26:05;;;;;;;8.25;2.60;;;8.00;99.90;;;;;;4997234;28;20273;-70
2021/12/28 03:28:35;;;;;;;14.05;3.58;;;8.00;99.90;;;;;;4997989;28;20268;-70
2021/12/28 03:31:05;;;;;;;10.35;2.70;;;8.00;99.90;;;;;;4997402;28;20203;-70
2021/12/28 03:33:35;;;;;;;15.73;2.80;;;8.00;99.90;;;;;;4997668;28;20199;-70
2021/12/28 03:36:04;;;;;;;6.82;2.47;;;8.00;99.90;;;;;;4997700;28;20198;-70
2021/12/28 03:38:31;;;;;;;11.90;2.97;;;7.90;99.90;;;;;;4997795;28;20206;-69
2021/12/28 03:40:58;;;;;;;17.23;3.25;;;7.90;99.90;;;;;;4998128;28;20207;-70
2021/12/28 03:43:25;;;;;;;12.38;2.80;;;7.90;99.90;;;;;;4998618;28;20533;-70
2021/12/28 03:45:51;;;;;;;14.23;3.30;;;7.90;99.90;;;;;;4997150;28;20238;-70
2021/12/28 03:48:18;;;;;;;12.50;4.00;;;7.90;99.90;;;;;;4998247;28;20667;-71
2021/12/28 03:50:45;;;;;;;14.43;2.65;;;7.90;99.90;;;;;;4998785;28;20203;-70
2021/12/28 03:53:11;;;;;;;7.97;2.45;;;7.90;99.90;;;;;;4998994;28;20606;-70
2021/12/28 03:55:38;;;;;;;13.02;2.65;;;7.90;99.90;;;;;;4998890;28;20206;-70
2021/12/28 03:58:05;;;;;;;7.55;2.83;;;7.90;99.90;;;;;;4999425;28;20199;-70
2021/12/28 04:00:36;;;;;;;10.25;2.50;;;7.90;99.90;;;;;;4998763;28;20271;-70
2021/12/28 04:03:03;;;;;;;11.18;3.20;;;7.90;99.90;;;;;;4998555;28;20190;-68
2021/12/28 04:05:29;;;;;;;11.82;3.25;;;7.90;99.90;;;;;;4998069;28;20206;-67
2021/12/28 04:07:56;;;;;;;7.05;3.00;;;8.00;99.90;;;;;;4998152;28;20268;-69
2021/12/28 04:10:30;;;;;;;12.75;2.80;;;8.00;99.90;;;;;;4998383;28;20555;-69
2021/12/28 04:12:57;;;;;;;11.45;3.05;;;7.90;99.90;;;;;;4998807;28;20632;-69
2021/12/28 04:15:24;;;;;;;16.40;3.13;;;7.90;99.90;;;;;;4998797;28;20249;-69
2021/12/28 04:17:51;;;;;;;10.15;4.00;;;7.90;99.90;;;;;;4998267;28;20280;-69
2021/12/28 04:20:19;;;;;;;10.73;2.80;;;7.90;99.90;;;;;;4997945;28;20246;-69
2021/12/28 04:22:46;;;;;;;15.43;2.83;;;7.90;99.90;;;;;;4995992;28;20206;-69
2021/12/28 04:25:17;;;;;;;12.02;3.17;;;7.90;99.90;;;;;;4997742;28;20213;-69
2021/12/28 04:27:44;;;;;;;9.60;3.53;;;7.90;99.90;;;;;;4997672;28;20620;-69
2021/12/28 04:30:12;;;;;;;10.43;3.22;;;7.90;99.90;;;;;;4997753;28;20257;-69
2021/12/28 04:32:39;;;;;;;12.70;3.35;;;7.90;99.90;;;;;;4997754;28;20207;-69
2021/12/28 04:35:06;;;;;;;15.63;3.65;;;7.90;99.90;;;;;;4998730;28;20546;-69
2021/12/28 04:37:34;;;;;;;7.43;2.65;;;7.90;99.90;;;;;;4999071;28;20229;-69
2021/12/28 04:40:01;;;;;;;10.02;3.35;;;7.90;99.90;;;;;;4998677;28;20211;-69
2021/12/28 04:42:29;;;;;;;10.15;2.67;;;7.90;99.90;;;;;;4998546;28;20202;-69
2021/12/28 04:44:56;;;;;;;12.05;3.30;;;7.90;99.90;;;;;;4998454;28;20246;-69
2021/12/28 04:47:22;;;;;;;17.13;10.13;;;7.80;99.90;;;;;;4980641;28;20284;-69
2021/12/28 04:49:49;;;;;;;23.77;13.63;;;7.80;99.90;;;;;;4997249;28;20205;-69
2021/12/28 04:52:16;;;;;;;21.70;6.78;;;7.80;99.90;;;;;;4997737;28;20277;-68
2021/12/28 04:54:43;;;;;;;12.55;4.45;;;7.80;99.90;;;;;;4997145;28;20206;-68
2021/12/28 04:57:09;;;;;;;17.40;5.53;;;7.80;99.90;;;;;;4997211;28;20539;-68
2021/12/28 04:59:36;;;;;;;26.20;8.32;;;7.70;99.90;;;;;;4997461;28;20655;-68
2021/12/28 05:02:03;;;;;;;11.02;5.35;;;7.80;99.90;;;;;;4979657;28;20542;-69
2021/12/28 05:04:30;;;;;;;12.77;5.60;;;7.80;99.90;;;;;;4996826;28;20257;-70
2021/12/28 05:06:56;;;;;;;16.90;5.38;;;7.70;99.90;;;;;;4995815;28;20705;-70
2021/12/28 05:09:23;;;;;;;13.45;5.75;;;7.70;99.90;;;;;;4996013;28;20260;-70
2021/12/28 05:11:50;;;;;;;14.00;4.65;;;7.70;99.90;;;;;;4996404;28;20655;-70
2021/12/28 05:14:18;;;;;;;12.45;3.58;;;7.70;99.90;;;;;;4995438;28;20202;-70
2021/12/28 05:16:45;;;;;;;11.73;4.18;;;7.70;99.90;;;;;;4996237;28;20684;-70
2021/12/28 05:19:11;;;;;;;8.82;3.50;;;7.60;99.90;;;;;;4995532;28;20206;-70
2021/12/28 05:21:38;;;;;;;14.80;4.85;;;7.60;99.90;;;;;;4995446;28;20705;-70
2021/12/28 05:24:05;;;;;;;20.33;6.03;;;7.70;99.90;;;;;;4996120;28;20276;-71
2021/12/28 05:26:32;;;;;;;21.92;5.75;;;7.70;99.90;;;;;;4995627;28;20222;-70
2021/12/28 05:28:59;;;;;;;17.45;5.57;;;7.70;99.90;;;;;;4996219;28;20203;-70
2021/12/28 05:31:26;;;;;;;15.52;5.70;;;7.70;99.90;;;;;;4996064;28;20261;-70
2021/12/28 05:33:53;;;;;;;12.88;5.13;;;7.60;99.90;;;;;;4978945;28;20199;-70
2021/12/28 05:36:21;;;;;;;7.85;4.57;;;7.60;99.90;;;;;;4995844;28;20218;-70
2021/12/28 05:38:47;;;;;;;7.65;3.85;;;7.60;99.90;;;;;;4996115;28;20206;-70
2021/12/28 05:41:14;;;;;;;11.35;4.38;;;7.60;99.90;;;;;;4996297;28;20213;-70
2021/12/28 05:43:40;;;;;;;10.63;4.40;;;7.60;99.90;;;;;;4997670;28;20207;-71
2021/12/28 05:46:07;;;;;;;11.98;4.82;;;7.60;99.90;;;;;;4997319;28;20230;-70
2021/12/28 05:48:33;;;;;;;11.85;3.95;;;7.60;99.90;;;;;;4996230;28;20202;-70
2021/12/28 05:50:59;;;;;;;11.30;3.95;;;7.60;99.90;;;;;;4995712;28;20199;-70
2021/12/28 05:53:26;;;;;;;10.32;6.25;;;7.60;99.90;;;;;;4995397;28;20202;-69
2021/12/28 05:55:52;;;;;;;10.88;3.90;;;7.60;99.90;;;;;;4995605;28;20634;-69
2021/12/28 05:58:19;;;;;;;10.70;4.15;;;7.60;99.90;;;;;;4995778;28;20248;-69
2021/12/28 06:00:45;;;;;;;7.22;3.42;;;7.70;99.90;;;;;;4995951;28;20671;-68
2021/12/28 06:03:12;;;;;;;12.85;3.80;;;7.70;99.90;;;;;;4996017;28;20214;-69
2021/12/28 06:05:38;;;;;;;7.40;3.72;;;7.70;99.90;;;;;;4995249;28;20685;-68
2021/12/28 06:08:05;;;;;;;7.90;3.08;;;7.70;99.90;;;;;;4995796;28;20223;-68
2021/12/28 06:10:31;;;;;;;6.38;2.60;;;7.70;99.90;;;;;;4996444;28;20619;-69
2021/12/28 06:12:58;;;;;;;9.35;2.90;;;7.70;99.90;;;;;;4995806;28;20210;-69
2021/12/28 06:15:24;;;;;;;9.75;2.80;;;7.80;99.90;;;;;;4996396;28;20203;-69
2021/12/28 06:17:50;;;;;;;17.90;5.90;;;7.80;99.90;;;;;;4998230;28;20272;-69
2021/12/28 06:20:17;;;;;;;6.45;3.40;;;7.80;99.90;;;;;;4996371;28;20237;-69
2021/12/28 06:22:43;;;;;;;5.25;2.50;;;7.90;99.90;;;;;;4995509;28;20260;-69
2021/12/28 06:25:10;;;;;;;7.07;2.33;;;7.90;99.90;;;;;;4995264;28;20211;-69
2021/12/28 06:27:36;;;;;;;6.32;2.40;;;7.90;99.90;;;;;;4995415;28;20314;-69
2021/12/28 06:30:03;;;;;;;11.18;2.22;;;8.00;99.90;;;;;;4995264;28;20199;-69
2021/12/28 06:32:29;;;;;;;9.95;3.20;;;8.00;99.90;;;;;;4994309;28;20202;-69
2021/12/28 06:34:56;;;;;;;9.02;2.70;;;8.00;99.90;;;;;;4995832;28;20229;-69
2021/12/28 06:37:22;;;;;;;10.15;2.70;;;8.00;99.90;;;;;;4996433;28;20203;-69
2021/12/28 06:39:49;;;;;;;5.95;1.55;;;8.10;99.90;;;;;;4994878;28;20637;-69
2021/12/28 06:42:15;;;;;;;3.40;1.50;;;8.10;99.90;;;;;;4995536;28;20678;-69
2021/12/28 06:44:44;;;;;;;6.13;2.05;;;8.10;99.90;;;;;;4996034;28;20207;-69
2021/12/28 06:47:11;;;;;;;7.32;2.20;;;8.10;99.90;;;;;;4995792;28;20740;-69
2021/12/28 06:49:38;;;;;;;6.47;1.95;;;8.10;99.90;;;;;;4995810;28;20210;-69
2021/12/28 06:52:06;;;;;;;4.15;2.00;;;8.10;99.90;;;;;;4995918;28;20206;-69
2021/12/28 06:54:36;;;;;;;3.90;1.67;;;8.10;99.90;;;;;;4996076;28;20206;-69
2021/12/28 06:57:08;;;;;;;3.40;1.58;;;8.10;99.90;;;;;;4978299;28;20264;-69
2021/12/28 06:59:43;;;;;;;6.35;1.90;;;8.10;99.90;;;;;;4996441;28;20261;-68
2021/12/28 07:02:11;;;;;;;3.60;1.90;;;8.10;99.90;;;;;;4994335;28;20209;-68
2021/12/28 07:04:37;;;;;;;3.97;1.67;;;8.10;99.90;;;;;;4995717;28;20207;-68
2021/12/28 07:07:05;;;;;;;7.68;1.50;;;8.20;99.90;;;;;;4994908;28;20227;-68
2021/12/28 07:09:32;;;;;;;3.88;2.40;;;8.20;99.90;;;;;;4995163;28;20573;-68
2021/12/28 07:11:59;;;;;;;6.50;1.38;;;8.20;99.90;;;;;;4995612;28;20207;-69
2021/12/28 07:14:28;;;;;;;8.50;1.80;;;8.20;99.90;;;;;;4995323;28;20199;-70
2021/12/28 07:16:55;;;;;;;2.15;1.33;;;8.20;99.90;;;;;;4984346;28;20264;-70
2021/12/28 07:19:22;;;;;;;1.40;1.27;;;8.20;99.90;;;;;;4977337;28;20207;-70
2021/12/28 07:21:49;;;;;;;3.83;1.40;;;8.30;99.90;;;;;;4994834;28;20245;-70
2021/12/28 07:24:15;;;;;;;2.92;1.48;;;8.30;99.90;;;;;;4995287;28;20219;-70
2021/12/28 07:26:42;;;;;;;2.58;1.08;;;8.30;99.90;;;;;;4995279;28;20230;-71
2021/12/28 07:29:10;;;;;;;0.90;0.82;;;8.30;99.90;;;;;;4995326;28;20236;-71
2021/12/28 07:31:38;;;;;;;3.55;1.25;;;8.30;99.90;;;;;;4995046;28;20663;-70
2021/12/28 07:34:04;;;;;;;3.78;1.05;;;8.30;99.90;;;;;;4996671;28;20725;-70
2021/12/28 07:36:31;;;;;;;2.42;1.20;;;8.40;99.90;;;;;;4996746;28;20618;-70
2021/12/28 07:38:57;;;;;;;1.50;1.40;;;8.40;99.90;;;;;;5001218;28;20297;-70
2021/12/28 07:41:23;;;;;;;1.60;1.50;;;8.40;99.90;;;;;;5001732;28;20293;-70
2021/12/28 07:43:50;;;;;;;1.08;0.98;;;8.40;99.90;;;;;;5004869;28;20293;-71
2021/12/28 07:46:17;;;;;;;2.90;1.42;;;8.40;99.90;;;;;;5004968;28;20213;-70
2021/12/28 07:48:43;;;;;;;1.08;0.98;;;8.40;99.90;;;;;;5005457;28;20199;-70
2021/12/28 07:51:10;;;;;;;2.58;1.17;;;8.40;99.90;;;;;;5005241;28;20655;-70
2021/12/28 07:53:36;;;;;;;1.08;0.93;;;8.40;99.90;;;;;;5004365;28;20631;-70
2021/12/28 07:56:03;;;;;;;4.53;1.80;;;8.50;99.90;;;;;;5003431;28;20206;-70
2021/12/28 07:58:30;;;;;;;2.05;0.80;;;8.50;99.90;;;;;;5004391;28;20228;-70
2021/12/28 08:00:56;;;;;;;1.10;1.00;;;8.50;99.90;;;;;;5005216;28;20710;-70
2021/12/28 08:03:24;;;;;;;0.93;0.93;;;8.50;99.90;;;;;;5005566;28;20631;-70
2021/12/28 08:05:52;;;;;;;2.25;0.90;;;8.60;99.90;;;;;;5005598;28;20222;-70
2021/12/28 08:08:18;;;;;;;2.83;0.85;;;8.60;99.90;;;;;;5005416;28;20313;-70
2021/12/28 08:10:45;;;;;;;1.42;1.05;;;8.60;99.90;;;;;;5005385;28;20205;-70
2021/12/28 08:13:11;;;;;;;1.27;1.00;;;8.70;99.90;;;;;;5004941;28;20734;-70
2021/12/28 08:15:39;;;;;;;2.40;1.00;;;8.70;99.90;;;;;;5005894;28;20286;-70
2021/12/28 08:18:09;;;;;;;2.33;1.35;;;8.70;99.90;;;;;;5005678;28;20210;-70
2021/12/28 08:20:37;;;;;;;3.25;0.93;;;8.70;99.90;;;;;;4986572;28;20373;-70
2021/12/28 08:23:04;;;;;;;2.05;0.93;;;8.70;99.90;;;;;;5005126;28;20611;-71
2021/12/28 08:25:30;;;;;;;1.10;1.00;;;8.70;99.90;;;;;;5004245;28;20269;-71
2021/12/28 08:27:58;;;;;;;1.17;1.08;;;8.70;99.90;;;;;;5004808;28;20690;-71
2021/12/28 08:30:24;;;;;;;0.82;0.80;;;8.70;99.90;;;;;;4998419;28;20289;-69
2021/12/28 08:32:51;;;;;;;2.10;1.02;;;8.70;99.90;;;;;;4998556;28;20203;-69
2021/12/28 08:35:18;;;;;;;2.08;1.20;;;8.70;99.90;;;;;;4998298;28;20210;-69
2021/12/28 08:37:45;;;;;;;1.00;0.85;;;8.70;99.90;;;;;;4997909;28;20230;-69
2021/12/28 08:40:13;;;;;;;1.10;1.00;;;8.70;99.90;;;;;;4997170;28;20221;-69
2021/12/28 08:42:39;;;;;;;0.80;0.80;;;8.80;99.90;;;;;;4998112;28;20271;-69
2021/12/28 08:45:07;;;;;;;1.48;0.80;;;8.80;99.90;;;;;;4998109;28;20265;-69
2021/12/28 08:47:34;;;;;;;1.10;1.00;;;8.80;99.90;;;;;;4998167;28;20225;-71
2021/12/28 08:50:01;;;;;;;1.95;1.13;;;8.80;99.90;;;;;;4997969;28;20202;-71
2021/12/28 08:52:28;;;;;;;1.25;0.90;;;8.90;99.90;;;;;;4997052;28;20202;-71
2021/12/28 08:54:54;;;;;;;0.82;0.82;;;8.90;99.90;;;;;;4996746;28;20280;-71
2021/12/28 08:57:21;;;;;;;0.80;0.80;;;8.90;99.90;;;;;;4997276;28;20206;-70
2021/12/28 08:59:47;;;;;;;0.88;0.88;;;9.00;99.90;;;;;;4998869;28;20205;-70
2021/12/28 09:02:14;;;;;;;1.60;1.20;;;9.00;99.90;;;;;;4999298;28;20199;-71
2021/12/28 09:04:43;;;;;;;2.20;1.00;;;9.00;99.90;;;;;;4998483;28;20256;-70
2021/12/28 09:07:10;;;;;;;1.00;1.00;;;9.00;99.90;;;;;;4997616;28;20230;-70
2021/12/28 09:09:37;;;;;;;1.17;1.02;;;9.00;99.90;;;;;;4998400;28;20202;-70
2021/12/28 09:12:04;;;;;;;3.40;1.30;;;9.00;99.90;;;;;;4998702;28;20286;-71
2021/12/28 09:14:32;;;;;;;1.35;1.25;;;9.10;99.90;;;;;;5000159;28;20550;-70
2021/12/28 09:16:58;;;;;;;1.10;1.00;;;9.10;99.90;;;;;;4999502;28;20289;-71
2021/12/28 09:19:25;;;;;;;1.00;1.00;;;9.10;99.90;;;;;;4998572;28;20229;-71
2021/12/28 09:21:51;;;;;;;1.92;1.20;;;9.20;99.90;;;;;;4998005;28;20231;-71
2021/12/28 09:24:18;;;;;;;1.13;1.13;;;9.20;99.90;;;;;;4998640;28;20718;-70
2021/12/28 09:26:44;;;;;;;2.55;1.67;;;9.20;99.90;;;;;;4998271;28;20289;-70
2021/12/28 09:29:11;;;;;;;1.08;0.98;;;9.30;99.90;;;;;;4997656;28;20199;-70
2021/12/28 09:31:37;;;;;;;1.15;1.00;;;9.30;99.90;;;;;;4997461;28;20248;-71
2021/12/28 09:34:03;;;;;;;1.35;0.93;;;9.40;99.90;;;;;;4997178;28;20261;-69
2021/12/28 09:36:30;;;;;;;1.30;1.10;;;9.40;99.90;;;;;;4997787;28;20213;-70
2021/12/28 09:38:56;;;;;;;1.20;1.08;;;9.40;99.90;;;;;;4996907;28;20628;-70
2021/12/28 09:41:23;;;;;;;1.98;1.10;;;9.50;99.90;;;;;;4996489;28;20767;-70
2021/12/28 09:43:49;;;;;;;1.48;1.38;;;9.50;99.90;;;;;;4996666;28;20268;-69
2021/12/28 09:46:16;;;;;;;2.10;1.05;;;9.60;99.90;;;;;;4996745;28;20206;-69
2021/12/28 09:48:43;;;;;;;1.98;1.80;;;9.60;99.90;;;;;;4997055;28;20222;-69
2021/12/28 09:51:12;;;;;;;1.27;1.20;;;9.60;99.90;;;;;;4997090;28;20213;-69
2021/12/28 09:53:38;;;;;;;1.35;1.25;;;9.70;99.90;;;;;;4995568;28;20202;-69
2021/12/28 09:56:06;;;;;;;1.38;1.27;;;9.70;99.90;;;;;;4995298;28;20205;-70
2021/12/28 09:58:37;;;;;;;1.23;1.20;;;9.80;99.90;;;;;;4996192;28;20210;-69
2021/12/28 10:01:09;;;;;;;1.70;1.40;;;9.80;99.90;;;;;;4996378;28;20218;-69
2021/12/28 10:03:36;;;;;;;1.63;1.25;;;9.80;99.90;;;;;;4996275;28;20207;-69
2021/12/28 10:06:21;;;;;;;1.88;0.93;;;9.80;99.90;;;;;;4995872;28;20231;-69
2021/12/28 10:09:05;;;;;;;1.67;1.50;;;9.80;99.90;;;;;;4995565;28;20272;-70
2021/12/28 10:11:37;;;;;;;1.40;1.20;;;9.80;99.90;;;;;;4996025;28;20206;-69
2021/12/28 10:14:16;;;;;;;1.88;1.00;;;9.80;99.90;;;;;;4995007;28;20681;-70
2021/12/28 10:16:53;;;;;;;3.25;1.30;;;9.90;99.90;;;;;;4994816;28;20621;-70
2021/12/28 10:19:40;;;;;;;1.35;1.25;;;9.90;99.90;;;;;;4994853;28;20538;-70
2021/12/28 10:22:32;;;;;;;3.97;1.40;;;9.90;99.90;;;;;;4995172;28;20238;-69
2021/12/28 10:25:00;;;;;;;1.50;1.40;;;9.90;99.90;;;;;;4995511;28;20249;-70
2021/12/28 10:27:30;;;;;;;1.30;1.20;;;9.90;99.90;;;;;;4995373;28;20222;-70
2021/12/28 10:30:05;;;;;;;1.73;1.63;;;9.90;99.90;;;;;;4996084;28;20207;-71
2021/12/28 10:32:32;;;;;;;2.00;1.90;;;9.90;99.90;;;;;;4996565;28;20186;-71
2021/12/28 10:35:05;;;;;;;2.95;2.25;;;9.90;99.90;;;;;;4995277;28;20232;-69
2021/12/28 10:37:35;;;;;;;2.08;1.85;;;9.90;99.90;;;;;;4996137;28;20202;-69
2021/12/28 10:40:06;;;;;;;2.83;1.80;;;9.90;99.90;;;;;;4995935;28;20206;-70
2021/12/28 10:42:47;;;;;;;3.65;1.80;;;9.90;99.90;;;;;;4996315;28;20209;-70
2021/12/28 10:45:28;;;;;;;1.92;1.40;;;10.00;99.90;;;;;;4995583;28;20214;-70
2021/12/28 10:47:56;;;;;;;1.77;1.60;;;10.00;99.90;;;;;;4994563;28;20211;-70
2021/12/28 10:50:30;;;;;;;2.03;1.92;;;10.10;99.90;;;;;;4994313;28;20218;-70
2021/12/28 10:53:11;;;;;;;2.30;1.95;;;10.20;99.90;;;;;;4993724;28;20212;-69
2021/12/28 10:55:40;;;;;;;4.32;2.00;;;10.20;99.90;;;;;;4994265;28;20190;-69
2021/12/28 10:58:07;;;;;;;1.60;1.50;;;10.20;99.90;;;;;;4994515;28;20198;-70
2021/12/28 11:00:39;;;;;;;2.22;2.10;;;10.30;99.90;;;;;;4993945;28;20658;-70
2021/12/28 11:03:17;;;;;;;1.92;1.83;;;10.30;99.90;;;;;;4993797;28;20197;-69
2021/12/28 11:05:49;;;;;;;1.88;1.40;;;10.40;99.90;;;;;;4993716;28;20262;-70
2021/12/28 11:08:16;;;;;;;2.20;2.00;;;10.30;99.90;;;;;;4993875;28;20219;-70
2021/12/28 11:10:46;;;;;;;3.10;1.70;;;10.40;99.90;;;;;;4994939;28;20202;-70
2021/12/28 11:13:14;;;;;;;1.58;1.48;;;10.50;99.90;;;;;;4995059;28;20703;-70
2021/12/28 11:15:45;;;;;;;1.92;1.80;;;10.50;99.90;;;;;;4995111;28;20203;-70
2021/12/28 11:18:25;;;;;;;2.33;2.20;;;10.60;99.90;;;;;;4996976;28;20191;-69
2021/12/28 11:20:54;;;;;;;1.85;1.42;;;10.70;99.90;;;;;;4998170;28;20242;-69
2021/12/28 11:23:23;;;;;;;1.45;1.15;;;10.80;99.90;;;;;;4998061;28;20206;-69
2021/12/28 11:26:09;;;;;;;2.28;1.38;;;10.80;99.90;;;;;;4998503;28;20272;-69
2021/12/28 11:28:37;;;;;;;1.52;1.42;;;10.90;99.90;;;;;;4998105;28;20261;-69
2021/12/28 11:31:16;;;;;;;1.75;1.38;;;10.90;99.90;;;;;;4999575;28;20234;-69
2021/12/28 11:34:03;;;;;;;0.90;0.90;;;10.90;99.90;;;;;;4999150;28;20198;-69
2021/12/28 11:36:34;;;;;;;3.25;1.50;;;10.90;99.90;;;;;;5000121;28;20289;-69
2021/12/28 11:39:06;;;;;;;1.42;1.33;;;10.90;99.90;;;;;;5000824;28;20214;-69
2021/12/28 11:41:33;;;;;;;1.40;1.30;;;10.80;99.90;;;;;;5001918;28;20563;-72
2021/12/28 11:44:00;;;;;;;2.20;1.40;;;10.90;99.90;;;;;;5000239;28;20278;-71
2021/12/28 11:46:27;;;;;;;1.40;1.30;;;10.90;99.90;;;;;;4999448;28;20209;-74
2021/12/28 11:48:54;;;;;;;1.77;1.20;;;11.00;99.90;;;;;;4999902;28;20222;-71
2021/12/28 11:51:22;;;;;;;1.45;1.35;;;10.90;99.90;;;;;;4999583;28;20206;-71
2021/12/28 11:53:50;;;;;;;2.38;1.80;;;11.00;99.90;;;;;;5000097;28;20199;-70
2021/12/28 11:56:20;;;;;;;4.25;1.50;;;11.00;99.90;;;;;;5000661;28;20202;-68
2021/12/28 11:58:58;;;;;;;2.17;1.70;;;11.10;99.90;;;;;;4999144;28;20199;-70
2021/12/28 12:01:45;;;;;;;1.25;1.10;;;11.20;99.90;;;;;;4998314;28;20206;-69
2021/12/28 12:04:30;;;;;;;1.70;1.60;;;11.20;99.90;;;;;;4998844;28;20202;-70
2021/12/28 12:07:14;;;;;;;4.35;1.77;;;11.20;99.90;;;;;;4998021;28;20705;-70
2021/12/28 12:09:49;;;;;;;3.40;1.60;;;11.30;99.90;;;;;;4996971;28;20610;-70
2021/12/28 12:12:33;;;;;;;2.55;1.23;;;11.40;99.90;;;;;;4996613;28;20210;-70
2021/12/28 12:15:01;;;;;;;1.30;1.20;;;11.40;99.90;;;;;;4997336;28;20203;-69
2021/12/28 12:20:20;;;;;;;1.30;1.15;;;11.50;99.90;;;;;;4996915;28;20655;-70
2021/12/28 12:22:55;;;;;;;1.08;0.80;;;11.50;99.90;;;;;;4997111;28;20194;-69
2021/12/28 12:25:50;;;;;;;6.85;1.52;;;11.50;99.90;;;;;;4996347;28;20205;-69
2021/12/28 12:28:20;;;;;;;2.65;1.15;;;;;;;;;;4997091;28;20269;-71
2021/12/28 12:30:54;;;;;;;2.38;1.02;;;11.40;99.90;;;;;;4998490;28;20199;-69
2021/12/28 12:33:21;;;;;;;4.50;2.00;;;11.20;99.90;;;;;;4997800;28;20187;-70
2021/12/28 12:35:59;;;;;;;2.25;1.65;;;11.00;99.90;;;;;;4996893;28;20198;-70
2021/12/28 12:38:26;;;;;;;1.90;1.45;;;10.90;99.90;;;;;;4996109;28;20272;-70
2021/12/28 12:41:07;;;;;;;5.90;1.10;;;10.80;99.90;;;;;;5000295;28;20214;-69
2021/12/28 12:43:37;;;;;;;3.55;1.60;;;10.80;99.90;;;;;;5000356;28;20207;-71
2021/12/28 12:46:17;;;;;;;3.65;1.13;;;10.80;99.90;;;;;;5000868;28;20289;-70
2021/12/28 12:48:43;;;;;;;6.90;1.60;;;10.80;99.90;;;;;;5003688;28;20225;-71
2021/12/28 12:51:26;;;;;;;5.38;1.67;;;10.80;99.90;;;;;;5003993;28;20246;-70
2021/12/28 12:53:54;;;;;;;4.32;1.63;;;10.80;99.90;;;;;;5005431;28;20246;-70
2021/12/28 12:56:29;;;;;;;3.00;1.58;;;10.90;99.90;;;;;;5002738;28;20203;-70
2021/12/28 12:58:59;;;;;;;3.28;1.73;;;10.90;99.90;;;;;;5005962;28;20226;-70
2021/12/28 13:01:30;;;;;;;3.70;1.48;;;10.90;99.90;;;;;;5007511;28;20206;-70
2021/12/28 13:03:59;;;;;;;4.80;1.80;;;10.90;99.90;;;;;;5007179;28;20657;-71